sensor_id;sensor_type;location;lat;lon;timestamp;pressure;altitude;pressure_sealevel;temperature;humidity
59971;BME280;45825;45.434;9.116;2023-05-19T00:00:17;100496.97;;;17.43;77.59
59971;BME280;45825;45.434;9.116;2023-05-19T00:02:43;100501.44;;;17.42;78.64
59971;BME280;45825;45.434;9.116;2023-05-19T00:05:09;100503.13;;;17.43;80.09
59971;BME280;45825;45.434;9.116;2023-05-19T00:07:37;100502.88;;;17.47;82.68
59971;BME280;45825;45.434;9.116;2023-05-19T00:10:03;100503.00;;;17.45;82.58
59971;BME280;45825;45.434;9.116;2023-05-19T00:12:29;100502.03;;;17.46;81.69
59971;BME280;45825;45.434;9.116;2023-05-19T00:14:54;100498.91;;;17.41;79.98
59971;BME280;45825;45.434;9.116;2023-05-19T00:17:20;100505.44;;;17.37;80.45
59971;BME280;45825;45.434;9.116;2023-05-19T00:19:45;100501.78;;;17.38;79.98
59971;BME280;45825;45.434;9.116;2023-05-19T00:22:11;100495.91;;;17.34;80.86
59971;BME280;45825;45.434;9.116;2023-05-19T00:24:36;100502.06;;;17.35;85.10
59971;BME280;45825;45.434;9.116;2023-05-19T00:27:01;100498.94;;;17.29;87.56
59971;BME280;45825;45.434;9.116;2023-05-19T00:29:27;100501.00;;;17.26;89.47
59971;BME280;45825;45.434;9.116;2023-05-19T00:31:53;100501.81;;;17.26;93.47
59971;BME280;45825;45.434;9.116;2023-05-19T00:34:18;100500.13;;;17.25;92.50
59971;BME280;45825;45.434;9.116;2023-05-19T00:36:44;100510.66;;;17.27;96.15
59971;BME280;45825;45.434;9.116;2023-05-19T00:39:09;100499.31;;;17.25;96.19
59971;BME280;45825;45.434;9.116;2023-05-19T00:41:34;100497.34;;;17.27;96.70
59971;BME280;45825;45.434;9.116;2023-05-19T00:44:00;100497.09;;;17.30;100.00
59971;BME280;45825;45.434;9.116;2023-05-19T00:46:25;100488.88;;;17.33;100.00
59971;BME280;45825;45.434;9.116;2023-05-19T00:48:51;100494.34;;;17.31;99.08
59971;BME280;45825;45.434;9.116;2023-05-19T00:51:16;100484.53;;;17.21;99.71
59971;BME280;45825;45.434;9.116;2023-05-19T00:53:43;100480.34;;;17.18;98.32
59971;BME280;45825;45.434;9.116;2023-05-19T00:56:12;100480.19;;;17.20;100.00
59971;BME280;45825;45.434;9.116;2023-05-19T00:58:38;100482.13;;;17.17;100.00
59971;BME280;45825;45.434;9.116;2023-05-19T01:01:03;100476.22;;;17.14;100.00
59971;BME280;45825;45.434;9.116;2023-05-19T01:03:32;100481.41;;;17.15;100.00
59971;BME280;45825;45.434;9.116;2023-05-19T01:06:04;100482.59;;;17.23;100.00
59971;BME280;45825;45.434;9.116;2023-05-19T01:08:31;100484.53;;;17.32;100.00
59971;BME280;45825;45.434;9.116;2023-05-19T01:10:56;100485.63;;;17.29;100.00
59971;BME280;45825;45.434;9.116;2023-05-19T01:13:22;100485.66;;;17.18;100.00
59971;BME280;45825;45.434;9.116;2023-05-19T01:24:48;100480.56;;;16.81;100.00
59971;BME280;45825;45.434;9.116;2023-05-19T01:27:29;100483.31;;;16.79;100.00
59971;BME280;45825;45.434;9.116;2023-05-19T01:32:43;100480.19;;;16.74;100.00
59971;BME280;45825;45.434;9.116;2023-05-19T01:35:11;100484.06;;;16.70;100.00
59971;BME280;45825;45.434;9.116;2023-05-19T01:37:37;100490.09;;;16.72;100.00
59971;BME280;45825;45.434;9.116;2023-05-19T01:40:05;100486.59;;;16.71;100.00
59971;BME280;45825;45.434;9.116;2023-05-19T01:42:31;100489.97;;;16.73;100.00
59971;BME280;45825;45.434;9.116;2023-05-19T01:45:02;100490.81;;;16.74;100.00
59971;BME280;45825;45.434;9.116;2023-05-19T01:47:30;100491.91;;;16.71;100.00
59971;BME280;45825;45.434;9.116;2023-05-19T01:49:55;100485.50;;;16.74;100.00
59971;BME280;45825;45.434;9.116;2023-05-19T01:52:21;100490.22;;;16.70;100.00
59971;BME280;45825;45.434;9.116;2023-05-19T01:54:47;100489.97;;;16.73;100.00
59971;BME280;45825;45.434;9.116;2023-05-19T02:02:49;100486.22;;;16.76;100.00
59971;BME280;45825;45.434;9.116;2023-05-19T02:08:05;100475.25;;;16.81;100.00
59971;BME280;45825;45.434;9.116;2023-05-19T02:10:36;100482.84;;;16.74;100.00
59971;BME280;45825;45.434;9.116;2023-05-19T02:13:05;100486.47;;;16.73;100.00
59971;BME280;45825;45.434;9.116;2023-05-19T02:15:38;100476.56;;;16.75;100.00
59971;BME280;45825;45.434;9.116;2023-05-19T02:18:04;100477.53;;;16.74;100.00
59971;BME280;45825;45.434;9.116;2023-05-19T02:20:30;100477.44;;;16.75;100.00
59971;BME280;45825;45.434;9.116;2023-05-19T02:22:55;100471.97;;;16.77;100.00
59971;BME280;45825;45.434;9.116;2023-05-19T02:25:21;100476.81;;;16.72;100.00
59971;BME280;45825;45.434;9.116;2023-05-19T02:27:47;100477.06;;;16.80;100.00
59971;BME280;45825;45.434;9.116;2023-05-19T02:30:13;100481.78;;;16.76;100.00
59971;BME280;45825;45.434;9.116;2023-05-19T02:32:38;100480.19;;;16.74;100.00
59971;BME280;45825;45.434;9.116;2023-05-19T02:35:04;100479.81;;;16.67;100.00
59971;BME280;45825;45.434;9.116;2023-05-19T02:37:30;100479.69;;;16.69;100.00
59971;BME280;45825;45.434;9.116;2023-05-19T02:39:56;100478.25;;;16.65;100.00
59971;BME280;45825;45.434;9.116;2023-05-19T02:42:22;100475.34;;;16.68;100.00
59971;BME280;45825;45.434;9.116;2023-05-19T02:44:48;100481.41;;;16.70;100.00
59971;BME280;45825;45.434;9.116;2023-05-19T02:47:13;100476.31;;;16.78;100.00
59971;BME280;45825;45.434;9.116;2023-05-19T02:49:39;100478.75;;;16.70;100.00
59971;BME280;45825;45.434;9.116;2023-05-19T02:52:05;100480.91;;;16.65;100.00
59971;BME280;45825;45.434;9.116;2023-05-19T02:54:31;100472.94;;;16.65;100.00
59971;BME280;45825;45.434;9.116;2023-05-19T02:56:57;100472.56;;;16.69;100.00
59971;BME280;45825;45.434;9.116;2023-05-19T02:59:23;100463.63;;;16.70;100.00
59971;BME280;45825;45.434;9.116;2023-05-19T03:01:49;100460.97;;;16.70;100.00
59971;BME280;45825;45.434;9.116;2023-05-19T03:04:14;100467.63;;;16.65;100.00
59971;BME280;45825;45.434;9.116;2023-05-19T03:06:39;100466.03;;;16.62;100.00
59971;BME280;45825;45.434;9.116;2023-05-19T03:09:06;100458.31;;;16.59;100.00
59971;BME280;45825;45.434;9.116;2023-05-19T03:11:31;100467.25;;;16.58;100.00
59971;BME280;45825;45.434;9.116;2023-05-19T03:13:57;100457.97;;;16.64;100.00
59971;BME280;45825;45.434;9.116;2023-05-19T03:16:22;100466.19;;;16.60;100.00
59971;BME280;45825;45.434;9.116;2023-05-19T03:18:48;100466.78;;;16.64;100.00
59971;BME280;45825;45.434;9.116;2023-05-19T03:21:13;100460.25;;;16.57;100.00
59971;BME280;45825;45.434;9.116;2023-05-19T03:23:39;100461.94;;;16.58;100.00
59971;BME280;45825;45.434;9.116;2023-05-19T03:26:04;100463.53;;;16.72;100.00
59971;BME280;45825;45.434;9.116;2023-05-19T03:28:30;100462.06;;;16.90;100.00
59971;BME280;45825;45.434;9.116;2023-05-19T03:30:55;100467.38;;;16.79;100.00
59971;BME280;45825;45.434;9.116;2023-05-19T03:33:20;100460.16;;;16.58;100.00
59971;BME280;45825;45.434;9.116;2023-05-19T03:35:47;100463.88;;;16.67;100.00
59971;BME280;45825;45.434;9.116;2023-05-19T03:38:13;100466.53;;;16.56;100.00
59971;BME280;45825;45.434;9.116;2023-05-19T03:40:38;100469.44;;;16.64;100.00
59971;BME280;45825;45.434;9.116;2023-05-19T03:43:03;100472.94;;;16.65;100.00
59971;BME280;45825;45.434;9.116;2023-05-19T03:45:28;100473.91;;;16.64;100.00
59971;BME280;45825;45.434;9.116;2023-05-19T03:47:54;100478.13;;;16.55;100.00
59971;BME280;45825;45.434;9.116;2023-05-19T03:50:20;100471.84;;;16.56;100.00
59971;BME280;45825;45.434;9.116;2023-05-19T03:52:45;100477.88;;;16.58;100.00
59971;BME280;45825;45.434;9.116;2023-05-19T03:55:12;100481.75;;;16.54;100.00
59971;BME280;45825;45.434;9.116;2023-05-19T03:57:39;100477.16;;;16.56;100.00
59971;BME280;45825;45.434;9.116;2023-05-19T04:00:06;100465.94;;;16.64;100.00
59971;BME280;45825;45.434;9.116;2023-05-19T04:02:31;100475.59;;;16.65;100.00
59971;BME280;45825;45.434;9.116;2023-05-19T04:04:57;100473.78;;;16.65;100.00
59971;BME280;45825;45.434;9.116;2023-05-19T04:07:22;100482.59;;;16.77;100.00
59971;BME280;45825;45.434;9.116;2023-05-19T04:09:48;100478.97;;;16.67;100.00
59971;BME280;45825;45.434;9.116;2023-05-19T04:12:14;100483.31;;;16.79;100.00
59971;BME280;45825;45.434;9.116;2023-05-19T04:14:39;100476.56;;;16.75;99.14
59971;BME280;45825;45.434;9.116;2023-05-19T04:17:04;100473.19;;;16.84;95.22
59971;BME280;45825;45.434;9.116;2023-05-19T04:19:29;100474.25;;;16.93;92.93
59971;BME280;45825;45.434;9.116;2023-05-19T04:21:55;100480.19;;;16.97;90.74
59971;BME280;45825;45.434;9.116;2023-05-19T04:24:21;100475.50;;;17.00;89.52
59971;BME280;45825;45.434;9.116;2023-05-19T04:26:46;100476.81;;;16.95;88.55
59971;BME280;45825;45.434;9.116;2023-05-19T04:29:11;100483.22;;;16.92;87.25
59971;BME280;45825;45.434;9.116;2023-05-19T04:31:38;100485.63;;;16.95;86.99
59971;BME280;45825;45.434;9.116;2023-05-19T04:34:05;100486.22;;;16.99;86.92
59971;BME280;45825;45.434;9.116;2023-05-19T04:36:32;100488.56;;;17.03;83.59
59971;BME280;45825;45.434;9.116;2023-05-19T04:38:58;100492.28;;;17.01;80.45
59971;BME280;45825;45.434;9.116;2023-05-19T04:41:26;100494.47;;;17.07;79.57
59971;BME280;45825;45.434;9.116;2023-05-19T04:43:52;100496.16;;;17.08;78.90
59971;BME280;45825;45.434;9.116;2023-05-19T04:46:17;100494.72;;;17.04;77.93
59971;BME280;45825;45.434;9.116;2023-05-19T04:48:48;100497.63;;;17.12;77.33
59971;BME280;45825;45.434;9.116;2023-05-19T04:51:14;100494.22;;;17.10;77.01
59971;BME280;45825;45.434;9.116;2023-05-19T04:53:40;100492.41;;;17.11;76.52
59971;BME280;45825;45.434;9.116;2023-05-19T04:56:05;100491.81;;;17.07;74.81
59971;BME280;45825;45.434;9.116;2023-05-19T04:58:31;100487.72;;;17.03;73.84
59971;BME280;45825;45.434;9.116;2023-05-19T05:00:56;100490.38;;;17.03;73.96
59971;BME280;45825;45.434;9.116;2023-05-19T05:03:24;100499.69;;;17.09;73.60
59971;BME280;45825;45.434;9.116;2023-05-19T05:05:50;100504.38;;;17.05;73.09
59971;BME280;45825;45.434;9.116;2023-05-19T05:08:16;100504.97;;;16.97;73.79
59971;BME280;45825;45.434;9.116;2023-05-19T05:10:51;100506.78;;;16.97;72.69
59971;BME280;45825;45.434;9.116;2023-05-19T05:13:20;100512.56;;;16.90;73.06
59971;BME280;45825;45.434;9.116;2023-05-19T05:15:46;100510.66;;;16.93;72.61
59971;BME280;45825;45.434;9.116;2023-05-19T05:18:12;100511.38;;;16.95;72.69
59971;BME280;45825;45.434;9.116;2023-05-19T05:20:38;100520.66;;;16.89;73.31
59971;BME280;45825;45.434;9.116;2023-05-19T05:23:03;100515.09;;;16.92;73.28
59971;BME280;45825;45.434;9.116;2023-05-19T05:25:29;100520.31;;;16.94;72.42
59971;BME280;45825;45.434;9.116;2023-05-19T05:27:55;100521.75;;;16.98;72.12
59971;BME280;45825;45.434;9.116;2023-05-19T05:30:20;100523.25;;;17.02;72.36
59971;BME280;45825;45.434;9.116;2023-05-19T05:32:45;100536.97;;;16.96;72.26
59971;BME280;45825;45.434;9.116;2023-05-19T05:35:11;100525.63;;;16.94;71.65
59971;BME280;45825;45.434;9.116;2023-05-19T05:37:36;100520.91;;;16.97;71.79
59971;BME280;45825;45.434;9.116;2023-05-19T05:40:02;100522.81;;;16.95;72.71
59971;BME280;45825;45.434;9.116;2023-05-19T05:42:28;100527.78;;;16.88;72.71
59971;BME280;45825;45.434;9.116;2023-05-19T05:44:53;100523.69;;;16.84;72.09
59971;BME280;45825;45.434;9.116;2023-05-19T05:47:19;100520.75;;;16.76;71.83
59971;BME280;45825;45.434;9.116;2023-05-19T05:49:44;100528.38;;;16.81;73.20
59971;BME280;45825;45.434;9.116;2023-05-19T05:52:13;100526.22;;;16.86;73.14
59971;BME280;45825;45.434;9.116;2023-05-19T05:54:39;100520.53;;;16.90;74.13
59971;BME280;45825;45.434;9.116;2023-05-19T05:57:05;100523.06;;;16.92;73.35
59971;BME280;45825;45.434;9.116;2023-05-19T05:59:30;100522.09;;;16.93;73.89
59971;BME280;45825;45.434;9.116;2023-05-19T06:01:57;100528.88;;;16.97;73.86
59971;BME280;45825;45.434;9.116;2023-05-19T06:04:23;100519.84;;;17.00;73.02
59971;BME280;45825;45.434;9.116;2023-05-19T06:06:49;100523.09;;;17.03;72.90
59971;BME280;45825;45.434;9.116;2023-05-19T06:09:16;100529.50;;;17.01;73.35
59971;BME280;45825;45.434;9.116;2023-05-19T06:11:42;100520.16;;;16.95;72.91
59971;BME280;45825;45.434;9.116;2023-05-19T06:14:07;100525.28;;;17.10;72.80
59971;BME280;45825;45.434;9.116;2023-05-19T06:16:32;100534.59;;;17.04;72.90
59971;BME280;45825;45.434;9.116;2023-05-19T06:18:57;100533.22;;;16.98;72.43
59971;BME280;45825;45.434;9.116;2023-05-19T06:21:23;100537.72;;;17.09;72.11
59971;BME280;45825;45.434;9.116;2023-05-19T06:23:48;100539.38;;;16.99;71.77
59971;BME280;45825;45.434;9.116;2023-05-19T06:26:13;100545.09;;;17.06;71.71
59971;BME280;45825;45.434;9.116;2023-05-19T06:28:40;100540.63;;;17.06;71.74
59971;BME280;45825;45.434;9.116;2023-05-19T06:31:05;100536.72;;;16.99;71.34
59971;BME280;45825;45.434;9.116;2023-05-19T06:33:31;100546.19;;;17.03;70.93
59971;BME280;45825;45.434;9.116;2023-05-19T06:35:56;100551.97;;;17.08;71.27
59971;BME280;45825;45.434;9.116;2023-05-19T06:38:21;100549.19;;;16.98;71.42
59971;BME280;45825;45.434;9.116;2023-05-19T06:40:47;100547.53;;;17.09;71.80
59971;BME280;45825;45.434;9.116;2023-05-19T06:43:12;100554.53;;;17.10;71.82
59971;BME280;45825;45.434;9.116;2023-05-19T06:45:37;100547.03;;;17.15;72.00
59971;BME280;45825;45.434;9.116;2023-05-19T06:48:03;100549.56;;;17.05;71.33
59971;BME280;45825;45.434;9.116;2023-05-19T06:50:28;100540.88;;;17.03;71.65
59971;BME280;45825;45.434;9.116;2023-05-19T06:52:53;100546.06;;;17.16;71.48
59971;BME280;45825;45.434;9.116;2023-05-19T06:55:19;100547.03;;;17.15;71.70
59971;BME280;45825;45.434;9.116;2023-05-19T06:57:44;100548.97;;;17.01;72.05
59971;BME280;45825;45.434;9.116;2023-05-19T07:00:10;100544.97;;;17.07;72.02
59971;BME280;45825;45.434;9.116;2023-05-19T07:02:37;100546.41;;;17.11;71.81
59971;BME280;45825;45.434;9.116;2023-05-19T07:05:02;100541.66;;;16.92;72.70
59971;BME280;45825;45.434;9.116;2023-05-19T07:07:27;100549.31;;;17.08;73.71
59971;BME280;45825;45.434;9.116;2023-05-19T07:09:53;100550.91;;;17.22;73.30
59971;BME280;45825;45.434;9.116;2023-05-19T07:12:18;100551.63;;;17.36;71.58
59971;BME280;45825;45.434;9.116;2023-05-19T07:14:43;100550.16;;;17.43;71.67
59971;BME280;45825;45.434;9.116;2023-05-19T07:17:09;100545.09;;;17.40;72.05
59971;BME280;45825;45.434;9.116;2023-05-19T07:19:34;100544.69;;;17.44;72.09
59971;BME280;45825;45.434;9.116;2023-05-19T07:21:59;100542.03;;;17.44;71.55
59971;BME280;45825;45.434;9.116;2023-05-19T07:24:25;100540.50;;;17.30;71.03
59971;BME280;45825;45.434;9.116;2023-05-19T07:26:51;100540.59;;;17.40;71.90
59971;BME280;45825;45.434;9.116;2023-05-19T07:29:16;100544.34;;;17.38;72.16
59971;BME280;45825;45.434;9.116;2023-05-19T07:31:42;100552.22;;;17.39;71.61
59971;BME280;45825;45.434;9.116;2023-05-19T07:34:07;100551.84;;;17.44;71.78
59971;BME280;45825;45.434;9.116;2023-05-19T07:36:32;100551.00;;;17.43;70.97
59971;BME280;45825;45.434;9.116;2023-05-19T07:38:58;100546.78;;;17.41;71.37
59971;BME280;45825;45.434;9.116;2023-05-19T07:41:23;100542.06;;;17.33;71.88
59971;BME280;45825;45.434;9.116;2023-05-19T07:43:48;100547.16;;;17.36;71.49
59971;BME280;45825;45.434;9.116;2023-05-19T07:46:14;100551.75;;;17.45;72.06
59971;BME280;45825;45.434;9.116;2023-05-19T07:48:39;100543.25;;;17.52;70.77
59971;BME280;45825;45.434;9.116;2023-05-19T07:51:05;100538.91;;;17.51;69.93
59971;BME280;45825;45.434;9.116;2023-05-19T07:53:34;100541.69;;;17.38;70.26
59971;BME280;45825;45.434;9.116;2023-05-19T07:55:59;100543.13;;;17.53;70.89
59971;BME280;45825;45.434;9.116;2023-05-19T07:58:25;100543.47;;;17.60;70.81
59971;BME280;45825;45.434;9.116;2023-05-19T08:00:50;100547.38;;;17.56;70.06
59971;BME280;45825;45.434;9.116;2023-05-19T08:03:15;100540.22;;;17.56;70.24
59971;BME280;45825;45.434;9.116;2023-05-19T08:05:42;100541.06;;;17.68;70.36
59971;BME280;45825;45.434;9.116;2023-05-19T08:08:07;100537.66;;;17.78;69.36
59971;BME280;45825;45.434;9.116;2023-05-19T08:10:32;100549.59;;;17.83;69.94
59971;BME280;45825;45.434;9.116;2023-05-19T08:12:58;100544.63;;;17.90;69.39
59971;BME280;45825;45.434;9.116;2023-05-19T08:15:23;100541.44;;;17.96;68.52
59971;BME280;45825;45.434;9.116;2023-05-19T08:17:49;100541.06;;;18.01;68.37
59971;BME280;45825;45.434;9.116;2023-05-19T08:20:15;100544.22;;;18.06;67.86
59971;BME280;45825;45.434;9.116;2023-05-19T08:22:40;100531.97;;;18.15;67.91
59971;BME280;45825;45.434;9.116;2023-05-19T08:25:06;100536.63;;;18.23;67.34
59971;BME280;45825;45.434;9.116;2023-05-19T08:27:32;100553.09;;;18.28;66.43
59971;BME280;45825;45.434;9.116;2023-05-19T08:29:57;100545.69;;;18.32;66.16
59971;BME280;45825;45.434;9.116;2023-05-19T08:32:23;100554.13;;;18.37;66.69
59971;BME280;45825;45.434;9.116;2023-05-19T08:34:48;100555.44;;;18.42;66.90
59971;BME280;45825;45.434;9.116;2023-05-19T08:37:14;100551.47;;;18.37;65.35
59971;BME280;45825;45.434;9.116;2023-05-19T08:39:39;100560.91;;;18.08;65.61
59971;BME280;45825;45.434;9.116;2023-05-19T08:42:08;100552.03;;;18.19;65.59
59971;BME280;45825;45.434;9.116;2023-05-19T08:44:34;100557.28;;;18.31;66.28
59971;BME280;45825;45.434;9.116;2023-05-19T08:47:03;100545.63;;;18.43;67.17
59971;BME280;45825;45.434;9.116;2023-05-19T08:49:43;100552.88;;;18.41;66.32
59971;BME280;45825;45.434;9.116;2023-05-19T08:52:26;100552.50;;;18.24;66.71
59971;BME280;45825;45.434;9.116;2023-05-19T08:55:03;100555.69;;;18.39;68.04
59971;BME280;45825;45.434;9.116;2023-05-19T08:57:31;100551.78;;;18.22;68.94
59971;BME280;45825;45.434;9.116;2023-05-19T08:59:57;100560.44;;;18.03;69.59
59971;BME280;45825;45.434;9.116;2023-05-19T09:02:23;100556.41;;;18.09;69.67
59971;BME280;45825;45.434;9.116;2023-05-19T09:04:49;100557.88;;;18.01;69.92
59971;BME280;45825;45.434;9.116;2023-05-19T09:07:14;100557.03;;;18.01;69.00
59971;BME280;45825;45.434;9.116;2023-05-19T09:09:41;100565.47;;;17.73;68.38
59971;BME280;45825;45.434;9.116;2023-05-19T09:12:09;100559.69;;;17.68;68.71
59971;BME280;45825;45.434;9.116;2023-05-19T09:14:36;100557.75;;;17.59;70.65
59971;BME280;45825;45.434;9.116;2023-05-19T09:17:01;100553.75;;;17.65;70.96
59971;BME280;45825;45.434;9.116;2023-05-19T09:19:30;100552.03;;;17.75;70.11
59971;BME280;45825;45.434;9.116;2023-05-19T09:21:59;100558.69;;;17.69;70.92
59971;BME280;45825;45.434;9.116;2023-05-19T09:24:27;100558.50;;;17.50;72.72
59971;BME280;45825;45.434;9.116;2023-05-19T09:26:56;100558.88;;;17.34;75.10
59971;BME280;45825;45.434;9.116;2023-05-19T09:29:22;100564.19;;;17.22;77.10
59971;BME280;45825;45.434;9.116;2023-05-19T09:31:48;100559.13;;;17.08;81.29
59971;BME280;45825;45.434;9.116;2023-05-19T09:34:14;100558.63;;;17.02;84.78
59971;BME280;45825;45.434;9.116;2023-05-19T09:36:40;100562.16;;;17.03;84.27
59971;BME280;45825;45.434;9.116;2023-05-19T09:39:16;100567.22;;;17.17;84.16
59971;BME280;45825;45.434;9.116;2023-05-19T09:41:43;100565.34;;;16.95;86.57
59971;BME280;45825;45.434;9.116;2023-05-19T09:44:26;100569.13;;;16.93;84.29
59971;BME280;45825;45.434;9.116;2023-05-19T09:46:54;100571.09;;;17.02;84.23
59971;BME280;45825;45.434;9.116;2023-05-19T09:49:26;100568.50;;;16.89;86.63
59971;BME280;45825;45.434;9.116;2023-05-19T09:51:56;100571.19;;;17.00;87.55
59971;BME280;45825;45.434;9.116;2023-05-19T09:54:23;100572.41;;;17.08;85.69
59971;BME280;45825;45.434;9.116;2023-05-19T09:57:02;100565.78;;;17.25;85.63
59971;BME280;45825;45.434;9.116;2023-05-19T09:59:28;100567.31;;;17.16;82.94
59971;BME280;45825;45.434;9.116;2023-05-19T10:01:56;100569.84;;;16.95;82.78
59971;BME280;45825;45.434;9.116;2023-05-19T10:04:24;100570.53;;;16.74;83.92
59971;BME280;45825;45.434;9.116;2023-05-19T10:06:53;100562.09;;;16.80;84.59
59971;BME280;45825;45.434;9.116;2023-05-19T10:09:22;100560.75;;;16.74;85.64
59971;BME280;45825;45.434;9.116;2023-05-19T10:11:53;100561.59;;;16.75;85.07
59971;BME280;45825;45.434;9.116;2023-05-19T10:14:22;100560.63;;;16.87;88.29
59971;BME280;45825;45.434;9.116;2023-05-19T10:16:53;100568.63;;;16.99;88.85
59971;BME280;45825;45.434;9.116;2023-05-19T10:19:23;100550.38;;;16.94;88.61
59971;BME280;45825;45.434;9.116;2023-05-19T10:21:50;100555.66;;;16.83;88.08
59971;BME280;45825;45.434;9.116;2023-05-19T10:24:15;100554.69;;;16.84;89.66
59971;BME280;45825;45.434;9.116;2023-05-19T10:26:44;100553.63;;;16.86;88.95
59971;BME280;45825;45.434;9.116;2023-05-19T10:29:15;100557.72;;;16.90;89.31
59971;BME280;45825;45.434;9.116;2023-05-19T10:31:42;100563.59;;;17.07;89.05
59971;BME280;45825;45.434;9.116;2023-05-19T10:34:34;100561.50;;;16.99;86.67
59971;BME280;45825;45.434;9.116;2023-05-19T10:37:16;100560.69;;;17.10;89.22
59971;BME280;45825;45.434;9.116;2023-05-19T10:39:46;100549.69;;;17.15;86.68
59971;BME280;45825;45.434;9.116;2023-05-19T10:42:17;100558.50;;;17.27;86.10
59971;BME280;45825;45.434;9.116;2023-05-19T10:47:25;100549.19;;;17.33;86.61
59971;BME280;45825;45.434;9.116;2023-05-19T10:49:53;100559.50;;;17.26;85.61
59971;BME280;45825;45.434;9.116;2023-05-19T10:52:21;100547.75;;;17.40;87.76
59971;BME280;45825;45.434;9.116;2023-05-19T10:54:47;100547.88;;;17.38;87.59
59971;BME280;45825;45.434;9.116;2023-05-19T10:57:16;100546.91;;;17.39;86.41
59971;BME280;45825;45.434;9.116;2023-05-19T10:59:42;100539.28;;;17.35;86.45
59971;BME280;45825;45.434;9.116;2023-05-19T11:05:11;100547.00;;;17.49;88.15
59971;BME280;45825;45.434;9.116;2023-05-19T11:07:53;100542.78;;;17.47;87.56
59971;BME280;45825;45.434;9.116;2023-05-19T11:10:23;100547.00;;;17.49;85.37
59971;BME280;45825;45.434;9.116;2023-05-19T11:12:48;100547.25;;;17.35;86.08
59971;BME280;45825;45.434;9.116;2023-05-19T11:15:14;100543.66;;;17.24;89.45
59971;BME280;45825;45.434;9.116;2023-05-19T11:17:40;100554.28;;;17.24;93.15
59971;BME280;45825;45.434;9.116;2023-05-19T11:20:19;100545.47;;;17.24;93.08
59971;BME280;45825;45.434;9.116;2023-05-19T11:23:00;100553.91;;;17.17;94.62
59971;BME280;45825;45.434;9.116;2023-05-19T11:25:40;100545.22;;;17.27;93.74
59971;BME280;45825;45.434;9.116;2023-05-19T11:28:06;100547.88;;;17.27;93.40
59971;BME280;45825;45.434;9.116;2023-05-19T11:30:32;100546.06;;;17.27;92.39
59971;BME280;45825;45.434;9.116;2023-05-19T11:32:57;100544.59;;;17.35;91.99
59971;BME280;45825;45.434;9.116;2023-05-19T11:35:23;100543.66;;;17.24;93.62
59971;BME280;45825;45.434;9.116;2023-05-19T11:37:49;100540.13;;;17.47;95.43
59971;BME280;45825;45.434;9.116;2023-05-19T11:40:19;100537.44;;;17.58;91.70
59971;BME280;45825;45.434;9.116;2023-05-19T11:42:45;100533.47;;;17.52;92.35
59971;BME280;45825;45.434;9.116;2023-05-19T11:45:11;100540.44;;;17.65;92.31
59971;BME280;45825;45.434;9.116;2023-05-19T11:47:36;100535.75;;;17.57;91.36
59971;BME280;45825;45.434;9.116;2023-05-19T11:50:02;100536.59;;;17.57;93.77
59971;BME280;45825;45.434;9.116;2023-05-19T11:52:27;100538.03;;;17.50;93.12
59971;BME280;45825;45.434;9.116;2023-05-19T11:54:53;100540.00;;;17.37;94.74
59971;BME280;45825;45.434;9.116;2023-05-19T11:57:18;100532.97;;;17.47;94.72
59971;BME280;45825;45.434;9.116;2023-05-19T11:59:44;100539.72;;;17.63;95.08
59971;BME280;45825;45.434;9.116;2023-05-19T12:04:47;100536.56;;;17.69;96.70
59971;BME280;45825;45.434;9.116;2023-05-19T12:07:17;100535.69;;;17.80;99.89
59971;BME280;45825;45.434;9.116;2023-05-19T12:09:44;100524.34;;;17.78;100.00
59971;BME280;45825;45.434;9.116;2023-05-19T12:12:18;100533.75;;;17.82;100.00
59971;BME280;45825;45.434;9.116;2023-05-19T12:14:45;100528.31;;;17.83;100.00
59971;BME280;45825;45.434;9.116;2023-05-19T12:19:37;100529.31;;;17.59;98.23
59971;BME280;45825;45.434;9.116;2023-05-19T12:22:05;100532.31;;;17.66;100.00
59971;BME280;45825;45.434;9.116;2023-05-19T12:24:32;100530.91;;;17.51;100.00
59971;BME280;45825;45.434;9.116;2023-05-19T12:27:11;100529.88;;;17.30;100.00
59971;BME280;45825;45.434;9.116;2023-05-19T12:29:38;100540.75;;;17.16;100.00
59971;BME280;45825;45.434;9.116;2023-05-19T12:32:06;100539.31;;;17.00;100.00
59971;BME280;45825;45.434;9.116;2023-05-19T12:34:39;100535.41;;;17.16;100.00
59971;BME280;45825;45.434;9.116;2023-05-19T12:37:05;100539.56;;;17.09;100.00
59971;BME280;45825;45.434;9.116;2023-05-19T12:39:31;100532.66;;;17.06;100.00
59971;BME280;45825;45.434;9.116;2023-05-19T12:42:06;100532.53;;;17.19;100.00
59971;BME280;45825;45.434;9.116;2023-05-19T12:44:42;100537.34;;;17.25;100.00
59971;BME280;45825;45.434;9.116;2023-05-19T12:47:10;100538.34;;;17.13;100.00
59971;BME280;45825;45.434;9.116;2023-05-19T12:49:36;100545.56;;;16.99;100.00
59971;BME280;45825;45.434;9.116;2023-05-19T12:52:01;100540.34;;;16.86;100.00
59971;BME280;45825;45.434;9.116;2023-05-19T12:54:33;100538.66;;;16.85;100.00
59971;BME280;45825;45.434;9.116;2023-05-19T12:56:58;100543.34;;;16.82;100.00
59971;BME280;45825;45.434;9.116;2023-05-19T12:59:24;100542.28;;;16.84;100.00
59971;BME280;45825;45.434;9.116;2023-05-19T13:01:57;100538.03;;;16.70;100.00
59971;BME280;45825;45.434;9.116;2023-05-19T13:04:25;100535.28;;;16.83;100.00
59971;BME280;45825;45.434;9.116;2023-05-19T13:06:52;100536.72;;;16.87;100.00
59971;BME280;45825;45.434;9.116;2023-05-19T13:09:17;100534.78;;;16.89;100.00
59971;BME280;45825;45.434;9.116;2023-05-19T13:11:44;100531.06;;;17.03;100.00
59971;BME280;45825;45.434;9.116;2023-05-19T13:14:15;100539.91;;;17.15;100.00
59971;BME280;45825;45.434;9.116;2023-05-19T13:16:43;100534.47;;;17.40;100.00